Time;durP1;ratioP1;P1;durP2;ratioP2;P2;SDS_P1;SDS_P2;PMS_P1;PMS_P2;Temp;Humidity;BMP_temperature;BMP_pressure;BME280_temperature;BME280_humidity;BME280_pressure;Samples;Min_cycle;Max_cycle;Signal;HPM_P1;HPM_P2
2021/10/06 00:01:09;;;;;;;6.25;0.82;;;;;;;-149.78;100.00;50389.31;4825249;29;20104;-75
2021/10/06 00:03:35;;;;;;;0.80;0.57;;;;;;;-149.78;100.00;50358.00;4841217;29;20095;-75
2021/10/06 00:06:01;;;;;;;4.13;0.80;;;;;;;-149.78;100.00;50352.16;4810550;29;20550;-75
2021/10/06 00:08:27;;;;;;;2.92;0.80;;;;;;;-149.78;100.00;50346.28;4841285;29;20050;-74
2021/10/06 00:10:52;;;;;;;3.03;0.80;;;;;;;-149.78;100.00;50393.22;4836361;29;20039;-75
2021/10/06 00:13:20;;;;;;;2.28;0.65;;;;;;;-149.78;100.00;50391.25;4834084;29;20121;-76
2021/10/06 00:15:46;;;;;;;0.90;0.60;;;;;;;-149.78;100.00;50373.66;4807702;29;20045;-74
2021/10/06 00:18:14;;;;;;;4.90;0.68;;;;;;;-149.78;100.00;50369.75;4826201;29;20392;-73
2021/10/06 00:20:41;;;;;;;4.35;0.98;;;;;;;-149.78;100.00;50383.44;4835473;29;20026;-73
2021/10/06 00:23:06;;;;;;;1.20;0.80;;;;;;;-149.78;100.00;50373.66;4811646;29;20066;-73
2021/10/06 00:25:33;;;;;;;3.25;0.82;;;;;;;-149.78;100.00;50363.88;4833256;29;20116;-73
2021/10/06 00:27:58;;;;;;;1.00;0.50;;;;;;;-149.78;100.00;50361.91;4838414;29;20037;-75
2021/10/06 00:30:24;;;;;;;0.88;0.40;;;;;;;-149.78;100.00;50377.56;4838950;29;20030;-74
2021/10/06 00:32:50;;;;;;;1.23;0.40;;;;;;;-149.78;100.00;50373.66;4845057;29;20104;-74
2021/10/06 00:35:16;;;;;;;1.38;0.70;;;;;;;-149.78;100.00;50385.38;4844763;29;20038;-73
2021/10/06 00:37:41;;;;;;;3.83;0.50;;;;;;;-149.78;100.00;50373.66;4843552;29;20038;-74
2021/10/06 00:40:07;;;;;;;3.20;0.68;;;;;;;-149.78;100.00;50369.75;4842103;29;20121;-74
2021/10/06 00:42:33;;;;;;;2.15;0.60;;;;;;;-149.78;100.00;50369.75;4813034;29;20050;-74
2021/10/06 00:44:59;;;;;;;3.40;0.60;;;;;;;-149.78;100.00;50389.31;4801183;29;20030;-74
2021/10/06 00:47:25;;;;;;;2.40;0.50;;;;;;;-149.78;100.00;50389.31;4838699;29;20102;-74
2021/10/06 00:49:51;;;;;;;2.30;0.93;;;;;;;-149.78;100.00;50389.31;4810497;29;20436;-74
2021/10/06 00:52:17;;;;;;;1.45;0.45;;;;;;;-149.78;100.00;50348.22;4841072;29;20045;-74
2021/10/06 00:54:43;;;;;;;0.55;0.40;;;;;;;-149.78;100.00;50383.44;4826120;29;20475;-74
2021/10/06 00:57:10;;;;;;;1.77;0.70;;;;;;;-149.78;100.00;50377.56;4844810;29;20733;-73
2021/10/06 00:59:37;;;;;;;0.43;0.40;;;;;;;-149.78;100.00;50381.47;4843311;29;20034;-74
2021/10/06 01:02:03;;;;;;;9.13;0.60;;;;;;;-149.78;100.00;50387.34;4842991;29;20174;-74
2021/10/06 01:04:31;;;;;;;1.05;0.50;;;;;;;-149.78;100.00;50373.66;4840544;29;20057;-74
2021/10/06 01:06:58;;;;;;;0.60;0.47;;;;;;;-149.78;100.00;50404.94;4835002;29;20046;-74
2021/10/06 01:09:27;;;;;;;1.58;0.40;;;;;;;-149.78;100.00;50365.84;4834882;29;20133;-74
2021/10/06 01:11:54;;;;;;;5.45;0.98;;;;;;;-149.78;100.00;50404.94;4825412;29;20558;-74
2021/10/06 01:14:21;;;;;;;2.10;0.47;;;;;;;-149.78;100.00;50369.75;4822874;29;20034;-74
2021/10/06 01:16:47;;;;;;;1.90;0.45;;;;;;;-149.78;100.00;50381.47;4844089;29;20049;-74
2021/10/06 01:19:23;;;;;;;2.05;0.40;;;;;;;-149.78;100.00;50404.94;4825994;29;20042;-73
2021/10/06 01:21:50;;;;;;;1.38;0.50;;;;;;;-149.78;100.00;50381.47;4834205;29;20189;-74
2021/10/06 01:24:17;;;;;;;1.83;0.45;;;;;;;-149.78;100.00;50361.91;4838284;29;20057;-74
2021/10/06 01:26:43;;;;;;;0.35;0.30;;;;;;;-149.78;100.00;50404.94;4842979;29;20065;-74
2021/10/06 01:29:10;;;;;;;1.38;0.60;;;;;;;-149.78;100.00;50397.13;4840365;29;20030;-73
2021/10/06 01:31:36;;;;;;;1.10;0.40;;;;;;;-149.78;100.00;50397.13;4834846;29;20034;-73
2021/10/06 01:34:02;;;;;;;0.30;0.30;;;;;;;-149.78;100.00;50377.56;4827112;29;21650;-73
2021/10/06 01:36:27;;;;;;;2.47;0.45;;;;;;;-149.78;100.00;50391.25;4820753;29;20042;-73
2021/10/06 01:38:53;;;;;;;1.83;0.30;;;;;;;-149.78;100.00;50377.56;4839810;29;20037;-73
2021/10/06 01:41:19;;;;;;;2.53;0.60;;;;;;;-149.78;100.00;50403.00;4842503;29;20042;-74
2021/10/06 01:43:45;;;;;;;1.25;0.43;;;;;;;-149.78;100.00;50381.47;4843153;29;20045;-73
2021/10/06 01:46:10;;;;;;;0.63;0.40;;;;;;;-149.78;100.00;50408.84;4821138;29;20395;-73
2021/10/06 01:48:36;;;;;;;0.80;0.43;;;;;;;-149.78;100.00;50404.94;4834464;29;20129;-73
2021/10/06 01:51:02;;;;;;;1.67;0.70;;;;;;;-149.78;100.00;50391.25;4826376;29;20034;-73
2021/10/06 01:53:38;;;;;;;2.15;0.68;;;;;;;-149.78;100.00;50369.75;4842551;29;20105;-73
2021/10/06 01:56:04;;;;;;;0.73;0.30;;;;;;;-149.78;100.00;50397.13;4843521;29;20041;-73
2021/10/06 01:58:30;;;;;;;0.90;0.32;;;;;;;-149.78;100.00;50404.94;4843151;29;20045;-73
2021/10/06 02:00:56;;;;;;;1.08;0.40;;;;;;;-149.78;100.00;50424.50;4827026;29;20410;-75
2021/10/06 02:03:22;;;;;;;2.97;0.38;;;;;;;-149.78;100.00;50387.34;4843309;29;20041;-74
2021/10/06 02:05:48;;;;;;;1.63;0.32;;;;;;;-149.78;100.00;50397.13;4842320;29;20034;-74
2021/10/06 02:08:14;;;;;;;0.47;0.38;;;;;;;-149.78;100.00;50381.47;4826014;29;20044;-74
2021/10/06 02:10:41;;;;;;;1.45;0.50;;;;;;;-149.78;100.00;50373.66;4839836;29;20182;-74
2021/10/06 02:13:07;;;;;;;0.80;0.50;;;;;;;-149.78;100.00;50428.41;4824202;29;20042;-74
2021/10/06 02:15:33;;;;;;;2.60;0.40;;;;;;;-149.78;100.00;50444.06;4836136;29;20045;-74
2021/10/06 02:17:59;;;;;;;0.60;0.40;;;;;;;-149.78;100.00;50404.94;4826331;29;20090;-72
2021/10/06 02:20:24;;;;;;;0.63;0.40;;;;;;;-149.78;100.00;50403.00;4839009;29;20042;-73
2021/10/06 02:22:51;;;;;;;0.52;0.30;;;;;;;-149.78;100.00;50359.97;4841412;29;20064;-73
2021/10/06 02:25:19;;;;;;;0.85;0.40;;;;;;;-149.78;100.00;50401.03;4842650;29;20030;-73
2021/10/06 02:27:45;;;;;;;0.85;0.35;;;;;;;-149.78;100.00;50399.09;4836835;29;20042;-74
2021/10/06 02:30:13;;;;;;;0.50;0.50;;;;;;;-149.78;100.00;50408.84;4845362;29;20049;-74
2021/10/06 02:32:39;;;;;;;0.28;0.22;;;;;;;-149.78;100.00;50381.47;4842786;29;20517;-73
2021/10/06 02:35:08;;;;;;;0.25;0.20;;;;;;;-149.78;100.00;50418.63;4824177;29;20030;-73
2021/10/06 02:37:35;;;;;;;1.77;0.50;;;;;;;-149.78;100.00;50373.66;4839399;29;20551;-73
2021/10/06 02:40:02;;;;;;;2.08;0.30;;;;;;;-149.78;100.00;50420.59;4843139;29;20104;-74
2021/10/06 02:42:28;;;;;;;1.35;0.30;;;;;;;-149.78;100.00;50385.38;4840412;29;20376;-73
2021/10/06 02:44:54;;;;;;;0.50;0.30;;;;;;;-149.78;100.00;50385.38;4826811;29;20041;-73
2021/10/06 02:47:20;;;;;;;3.40;0.40;;;;;;;-149.78;100.00;50377.56;4842702;29;20374;-73
2021/10/06 02:49:46;;;;;;;0.80;0.30;;;;;;;-149.78;100.00;50395.16;4840075;29;20083;-74
2021/10/06 02:52:11;;;;;;;1.38;0.30;;;;;;;-149.78;100.00;50385.38;4841880;29;20445;-74
2021/10/06 02:54:38;;;;;;;1.70;0.40;;;;;;;-149.78;100.00;50377.56;4841508;29;20049;-74
2021/10/06 02:57:04;;;;;;;0.73;0.30;;;;;;;-149.78;100.00;50420.59;4842631;29;20097;-74
2021/10/06 02:59:34;;;;;;;3.33;0.40;;;;;;;-149.78;100.00;50348.22;4840155;29;20040;-74
2021/10/06 03:02:00;;;;;;;1.45;0.40;;;;;;;-149.78;100.00;50363.88;4840753;29;20033;-76
2021/10/06 03:04:26;;;;;;;0.55;0.30;;;;;;;-149.78;100.00;50381.47;4824676;29;20041;-76
2021/10/06 03:06:52;;;;;;;1.08;0.30;;;;;;;-149.78;100.00;50373.66;4840736;29;20078;-77
2021/10/06 03:09:18;;;;;;;1.40;0.40;;;;;;;-149.78;100.00;50365.84;4841330;29;20038;-77
2021/10/06 03:11:44;;;;;;;0.77;0.32;;;;;;;-149.78;100.00;50365.84;4842282;29;20050;-76
2021/10/06 03:14:10;;;;;;;0.30;0.30;;;;;;;-149.78;100.00;50412.78;4826028;29;20044;-76
2021/10/06 03:16:36;;;;;;;3.00;0.35;;;;;;;-149.78;100.00;50397.13;4835249;29;20037;-76
2021/10/06 03:19:01;;;;;;;0.35;0.30;;;;;;;-149.78;100.00;50401.03;4835715;29;20478;-76
2021/10/06 03:21:27;;;;;;;0.30;0.30;;;;;;;-149.78;100.00;50410.81;4835596;29;20487;-77
2021/10/06 03:23:53;;;;;;;1.13;0.30;;;;;;;-149.78;100.00;50414.72;4832284;29;20061;-77
2021/10/06 03:26:19;;;;;;;0.45;0.30;;;;;;;-149.78;100.00;50399.09;4841006;29;20038;-76
2021/10/06 03:28:45;;;;;;;2.03;0.40;;;;;;;-149.78;100.00;50393.22;4841389;29;20102;-76
2021/10/06 03:31:11;;;;;;;0.40;0.40;;;;;;;-149.78;100.00;50381.47;4832289;29;20042;-76
2021/10/06 03:33:36;;;;;;;1.20;0.40;;;;;;;-149.78;100.00;50373.66;4840886;29;20046;-76
2021/10/06 03:36:03;;;;;;;0.30;0.30;;;;;;;-149.78;100.00;50389.31;4844938;29;20037;-76
2021/10/06 03:38:29;;;;;;;1.77;0.40;;;;;;;-149.78;100.00;50365.84;4833755;29;20034;-76
2021/10/06 03:40:57;;;;;;;0.40;0.30;;;;;;;-149.78;100.00;50369.75;4835606;29;20112;-75
2021/10/06 03:43:22;;;;;;;1.38;0.52;;;;;;;-149.78;100.00;50420.59;4841816;29;20044;-76
2021/10/06 03:45:48;;;;;;;0.35;0.32;;;;;;;-149.78;100.00;50420.59;4829900;29;20543;-76
2021/10/06 03:48:14;;;;;;;1.52;0.30;;;;;;;-149.78;100.00;50377.56;4832135;29;20046;-76
2021/10/06 03:50:39;;;;;;;0.60;0.35;;;;;;;-149.78;100.00;50424.50;4825723;29;20045;-76
2021/10/06 03:53:05;;;;;;;0.50;0.30;;;;;;;-149.78;100.00;50444.06;4839154;29;20436;-75
2021/10/06 03:55:32;;;;;;;0.90;0.30;;;;;;;-149.78;100.00;50404.94;4841176;29;20040;-73
2021/10/06 03:57:58;;;;;;;0.50;0.30;;;;;;;-149.78;100.00;50401.03;4842186;29;20038;-73
2021/10/06 04:00:24;;;;;;;0.60;0.40;;;;;;;-149.78;100.00;50391.25;4825003;29;20095;-73
2021/10/06 04:02:50;;;;;;;0.35;0.35;;;;;;;-149.78;100.00;50420.59;4822002;29;20527;-73
2021/10/06 04:05:16;;;;;;;0.25;0.20;;;;;;;-149.78;100.00;50408.84;4810268;29;20037;-73
2021/10/06 04:07:41;;;;;;;1.70;0.70;;;;;;;-149.78;100.00;50385.38;4844664;29;20030;-73
2021/10/06 04:10:07;;;;;;;1.30;0.40;;;;;;;-149.78;100.00;50403.00;4844957;29;20379;-73
2021/10/06 04:12:34;;;;;;;0.73;0.43;;;;;;;-149.78;100.00;50385.38;4845459;29;20040;-73
2021/10/06 04:15:03;;;;;;;1.45;0.40;;;;;;;-149.78;100.00;50393.22;4846124;29;20049;-74
2021/10/06 04:17:28;;;;;;;0.52;0.40;;;;;;;-149.78;100.00;50393.22;4841540;29;20041;-73
2021/10/06 04:19:54;;;;;;;1.05;0.32;;;;;;;-149.78;100.00;50381.47;4833445;29;20042;-74
2021/10/06 04:22:20;;;;;;;0.43;0.30;;;;;;;-149.78;100.00;50371.69;4839537;29;20040;-73
2021/10/06 04:24:46;;;;;;;1.75;0.30;;;;;;;-149.78;100.00;50416.69;4805647;29;20050;-73
2021/10/06 04:27:12;;;;;;;0.40;0.40;;;;;;;-149.78;100.00;50365.84;4840428;29;20044;-73
2021/10/06 04:29:38;;;;;;;0.30;0.30;;;;;;;-149.78;100.00;50377.56;4831306;29;20058;-74
2021/10/06 04:32:04;;;;;;;0.30;0.28;;;;;;;-149.78;100.00;50389.31;4815608;29;20437;-74
2021/10/06 04:34:30;;;;;;;0.32;0.32;;;;;;;-149.78;100.00;50385.38;4822994;29;20066;-74
2021/10/06 04:36:56;;;;;;;0.40;0.30;;;;;;;-149.78;100.00;50420.59;4835157;29;20129;-74
2021/10/06 04:39:21;;;;;;;1.23;0.40;;;;;;;-149.78;100.00;50385.38;4845116;29;20124;-74
2021/10/06 04:41:47;;;;;;;1.40;0.35;;;;;;;-149.78;100.00;50389.31;4803473;29;20038;-74
2021/10/06 04:44:14;;;;;;;1.75;0.40;;;;;;;-149.78;100.00;50385.38;4837102;29;20063;-73
2021/10/06 04:46:40;;;;;;;0.50;0.30;;;;;;;-149.78;100.00;50408.84;4844383;29;20034;-73
2021/10/06 04:49:06;;;;;;;0.30;0.30;;;;;;;-149.78;100.00;50428.41;4844367;29;20030;-73
2021/10/06 04:51:32;;;;;;;1.58;0.43;;;;;;;-149.78;100.00;50404.94;4826145;29;20037;-73
2021/10/06 04:53:57;;;;;;;0.40;0.38;;;;;;;-149.78;100.00;50404.94;4827390;29;20034;-73
2021/10/06 04:56:24;;;;;;;3.13;0.40;;;;;;;-149.78;100.00;50404.94;4845313;29;20041;-73
2021/10/06 04:58:49;;;;;;;1.13;0.82;;;;;;;-149.78;100.00;50389.31;4828138;29;20041;-73
2021/10/06 05:01:15;;;;;;;0.57;0.50;;;;;;;-149.78;100.00;50387.34;4843412;29;20038;-73
2021/10/06 05:03:40;;;;;;;0.30;0.30;;;;;;;-149.78;100.00;50401.03;4843339;29;20082;-76
2021/10/06 05:06:06;;;;;;;0.57;0.40;;;;;;;-149.78;100.00;50381.47;4826364;29;20046;-76
2021/10/06 05:08:33;;;;;;;1.50;0.43;;;;;;;-149.78;100.00;50401.03;4843409;29;20050;-76
2021/10/06 05:11:01;;;;;;;0.30;0.30;;;;;;;-149.78;100.00;50412.78;4842880;29;20046;-76
2021/10/06 05:13:26;;;;;;;4.00;0.75;;;;;;;-149.78;100.00;50397.13;4819690;29;20464;-76
2021/10/06 05:15:52;;;;;;;0.47;0.40;;;;;;;-149.78;100.00;50385.38;4836680;29;20046;-76
2021/10/06 05:18:18;;;;;;;0.60;0.40;;;;;;;-149.78;100.00;50408.84;4825296;29;20042;-76
2021/10/06 05:20:43;;;;;;;1.55;0.30;;;;;;;-149.78;100.00;50416.69;4835788;29;20562;-77
2021/10/06 05:23:09;;;;;;;0.73;0.30;;;;;;;-149.78;100.00;50377.56;4837361;29;20045;-76
2021/10/06 05:25:35;;;;;;;1.50;0.30;;;;;;;-149.78;100.00;50389.31;4837353;29;20042;-76
2021/10/06 05:28:01;;;;;;;0.90;0.30;;;;;;;-149.78;100.00;50389.31;4833067;29;20066;-77
2021/10/06 05:30:27;;;;;;;1.10;0.40;;;;;;;-149.78;100.00;50377.56;4835068;29;20065;-75
2021/10/06 05:32:53;;;;;;;0.80;0.30;;;;;;;-149.78;100.00;50408.84;4851213;29;20081;-77
2021/10/06 05:35:20;;;;;;;1.05;0.47;;;;;;;-149.78;100.00;50401.03;4811537;29;20059;-76
2021/10/06 05:37:46;;;;;;;3.80;0.55;;;;;;;-149.78;100.00;50414.72;4810601;29;20772;-76
2021/10/06 05:40:12;;;;;;;0.70;0.30;;;;;;;-149.78;100.00;50401.03;4800752;29;20498;-76
2021/10/06 05:42:38;;;;;;;0.80;0.40;;;;;;;-149.78;100.00;50389.31;4805097;29;20172;-76
2021/10/06 05:45:04;;;;;;;0.65;0.43;;;;;;;-149.78;100.00;50414.72;4806185;29;20035;-75
2021/10/06 05:47:30;;;;;;;2.17;0.45;;;;;;;-149.78;100.00;50404.94;4793266;29;20042;-76
2021/10/06 05:49:55;;;;;;;0.98;0.40;;;;;;;-149.78;100.00;50393.22;4801531;29;20039;-76
2021/10/06 05:52:22;;;;;;;1.13;0.43;;;;;;;-149.78;100.00;50385.38;4805728;29;20046;-76
2021/10/06 05:54:49;;;;;;;0.50;0.43;;;;;;;-149.78;100.00;50410.81;4807180;29;20523;-76
2021/10/06 05:57:14;;;;;;;0.85;0.50;;;;;;;-149.78;100.00;50385.38;4806390;29;20045;-74
2021/10/06 05:59:41;;;;;;;0.32;0.30;;;;;;;-149.78;100.00;50389.31;4796487;29;20043;-74
2021/10/06 06:02:07;;;;;;;1.85;0.45;;;;;;;-149.78;100.00;50401.03;4792363;29;20050;-75
2021/10/06 06:04:33;;;;;;;0.60;0.35;;;;;;;-149.78;100.00;50426.47;4782901;29;20435;-75
2021/10/06 06:06:58;;;;;;;0.30;0.30;;;;;;;-149.78;100.00;50399.09;4793118;29;20111;-75
2021/10/06 06:09:24;;;;;;;0.30;0.30;;;;;;;-149.78;100.00;50389.31;4780564;29;20086;-75
2021/10/06 06:11:51;;;;;;;1.20;0.38;;;;;;;-149.78;100.00;50412.78;4792639;29;20043;-74
2021/10/06 06:14:17;;;;;;;1.75;0.40;;;;;;;-149.78;100.00;50440.16;4793422;29;20043;-75
2021/10/06 06:16:43;;;;;;;1.15;0.40;;;;;;;-149.78;100.00;50385.38;4796574;29;20031;-75
2021/10/06 06:19:11;;;;;;;0.65;0.35;;;;;;;-149.78;100.00;50404.94;4799818;29;20742;-75
2021/10/06 06:21:38;;;;;;;1.30;0.50;;;;;;;-149.78;100.00;50389.31;4797451;29;20039;-74
2021/10/06 06:24:04;;;;;;;0.85;0.40;;;;;;;-149.78;100.00;50424.50;4788718;29;20129;-74
2021/10/06 06:26:30;;;;;;;0.82;0.32;;;;;;;-149.78;100.00;50385.38;4794156;29;20110;-71
2021/10/06 06:28:56;;;;;;;0.38;0.38;;;;;;;-149.78;100.00;50420.59;4803888;29;20130;-74
2021/10/06 06:31:22;;;;;;;0.90;0.40;;;;;;;-149.78;100.00;50401.03;4795692;29;20046;-71
2021/10/06 06:33:47;;;;;;;0.32;0.32;;;;;;;-149.78;100.00;50385.38;4801600;29;20507;-71
2021/10/06 06:36:13;;;;;;;0.43;0.43;;;;;;;-149.78;100.00;50412.78;4831463;29;20034;-71
2021/10/06 06:38:39;;;;;;;0.82;0.47;;;;;;;-149.78;100.00;50404.94;4824171;29;20395;-72
2021/10/06 06:41:05;;;;;;;3.33;0.45;;;;;;;-149.78;100.00;50412.78;4841736;29;20136;-72
2021/10/06 06:43:31;;;;;;;3.13;0.50;;;;;;;-149.78;100.00;50416.69;4840353;29;20038;-74
2021/10/06 06:45:58;;;;;;;1.35;0.45;;;;;;;-149.78;100.00;50399.09;4841774;29;20034;-74
2021/10/06 06:48:24;;;;;;;0.60;0.40;;;;;;;-149.78;100.00;50389.31;4824298;29;20402;-74
2021/10/06 06:50:53;;;;;;;0.75;0.43;;;;;;;-149.78;100.00;50377.56;4834311;29;20033;-76
2021/10/06 06:53:27;;;;;;;0.55;0.50;;;;;;;-149.78;100.00;50410.81;4824782;29;20048;-75
2021/10/06 06:55:53;;;;;;;6.45;0.60;;;;;;;-149.78;100.00;50408.84;4824804;29;20385;-77
2021/10/06 06:58:19;;;;;;;0.98;0.50;;;;;;;-149.78;100.00;50377.56;4834117;29;20042;-75
2021/10/06 07:00:46;;;;;;;0.60;0.40;;;;;;;-149.78;100.00;50412.78;4836069;29;20034;-73
2021/10/06 07:03:11;;;;;;;0.70;0.55;;;;;;;-149.78;100.00;50418.63;4817521;29;20467;-75
2021/10/06 07:05:37;;;;;;;0.50;0.50;;;;;;;-149.78;100.00;50367.78;4816138;29;20033;-74
2021/10/06 07:08:03;;;;;;;1.50;0.50;;;;;;;-149.78;100.00;50408.84;4826401;29;20505;-78
2021/10/06 07:10:30;;;;;;;1.33;0.70;;;;;;;-149.78;100.00;50377.56;4823075;29;20062;-73
2021/10/06 07:12:56;;;;;;;0.70;0.50;;;;;;;-149.78;100.00;50406.91;4834838;29;20060;-76
2021/10/06 07:15:21;;;;;;;0.50;0.50;;;;;;;-149.78;100.00;50424.50;4832640;29;20451;-74
2021/10/06 07:17:50;;;;;;;0.60;0.52;;;;;;;-149.78;100.00;50379.53;4812574;29;20090;-75
2021/10/06 07:20:15;;;;;;;5.97;0.60;;;;;;;-149.78;100.00;50377.56;4827202;29;20038;-76
2021/10/06 07:22:44;;;;;;;0.77;0.57;;;;;;;-149.78;100.00;50397.13;4833591;29;20038;-75
2021/10/06 07:25:12;;;;;;;1.85;0.70;;;;;;;-149.78;100.00;50401.03;4833400;29;20046;-76
2021/10/06 07:27:37;;;;;;;1.30;0.47;;;;;;;-149.78;100.00;50401.03;4816946;29;20387;-75
2021/10/06 07:30:04;;;;;;;0.52;0.45;;;;;;;-149.78;100.00;50385.38;4829619;29;20045;-74
2021/10/06 07:32:30;;;;;;;0.88;0.52;;;;;;;-149.78;100.00;50361.91;4830801;29;20035;-73
2021/10/06 07:34:56;;;;;;;2.30;0.65;;;;;;;-149.78;100.00;50406.91;4832192;29;20073;-73
2021/10/06 07:37:22;;;;;;;0.30;0.30;;;;;;;-149.78;100.00;50373.66;4837834;29;20053;-72
2021/10/06 07:39:48;;;;;;;1.48;0.55;;;;;;;-149.78;100.00;50418.63;4835447;29;20038;-73
2021/10/06 07:42:13;;;;;;;0.93;0.50;;;;;;;-149.78;100.00;50385.38;4819534;29;20038;-73
2021/10/06 07:44:40;;;;;;;0.55;0.50;;;;;;;-149.78;100.00;50385.38;4828597;29;20042;-74
2021/10/06 07:47:05;;;;;;;0.52;0.40;;;;;;;-149.78;100.00;50309.13;4833713;29;20497;-75
2021/10/06 07:49:31;;;;;;;0.60;0.40;;;;;;;-149.78;100.00;50283.69;4835669;29;20042;-75
2021/10/06 07:51:57;;;;;;;1.00;0.40;;;;;;;-149.78;74.08;50268.03;4837474;29;20038;-75
2021/10/06 07:54:22;;;;;;;0.80;0.40;;;;;;;-149.78;63.80;50217.19;4832446;29;20038;-75
2021/10/06 07:56:48;;;;;;;0.40;0.40;;;;;;;-149.78;57.86;50228.94;4833376;29;20038;-75
2021/10/06 07:59:13;;;;;;;0.70;0.50;;;;;;;-149.78;55.40;50178.09;4832875;29;20030;-75
2021/10/06 08:01:39;;;;;;;0.43;0.43;;;;;;;-149.78;53.36;50176.13;4834451;29;20050;-75
2021/10/06 08:04:05;;;;;;;1.02;0.40;;;;;;;-149.78;50.88;50166.34;4816299;29;20038;-74
2021/10/06 08:06:30;;;;;;;1.10;0.40;;;;;;;-149.78;50.31;50109.66;4824411;29;20106;-74
2021/10/06 08:08:56;;;;;;;0.60;0.55;;;;;;;-149.78;49.90;50107.69;4832808;29;20114;-75
2021/10/06 08:11:22;;;;;;;1.10;0.50;;;;;;;-149.78;48.59;50137.03;4835622;29;20029;-74
2021/10/06 08:13:48;;;;;;;0.55;0.50;;;;;;;-149.78;48.18;50092.03;4836729;29;20090;-74
2021/10/06 08:16:13;;;;;;;0.35;0.35;;;;;;;-149.78;46.99;50084.22;4819604;29;20045;-74
2021/10/06 08:18:39;;;;;;;1.05;0.50;;;;;;;-149.78;46.67;50123.34;4832082;29;20431;-74
2021/10/06 08:21:05;;;;;;;0.88;0.52;;;;;;;-149.78;47.56;50107.69;4832636;29;21124;-75
2021/10/06 08:23:31;;;;;;;0.63;0.50;;;;;;;-149.78;47.10;50103.78;4839392;29;20460;-74
2021/10/06 08:25:58;;;;;;;0.50;0.40;;;;;;;-149.78;46.52;50111.59;4840160;29;20041;-74
2021/10/06 08:28:24;;;;;;;1.35;0.50;;;;;;;-149.78;45.51;50060.75;4838196;29;20035;-74
2021/10/06 08:30:50;;;;;;;0.30;0.30;;;;;;;-149.78;45.14;50056.84;4831096;29;20061;-74
2021/10/06 08:33:16;;;;;;;1.02;0.55;;;;;;;-149.78;44.53;50095.94;4842648;29;20419;-74
2021/10/06 08:35:41;;;;;;;1.80;0.57;;;;;;;-149.78;44.56;50084.22;4833688;29;20050;-74
2021/10/06 08:38:08;;;;;;;1.23;0.45;;;;;;;-149.78;43.69;50052.94;4840693;29;20422;-74
2021/10/06 08:40:36;;;;;;;3.70;0.45;;;;;;;-149.78;43.86;50088.13;4840892;29;20121;-74
2021/10/06 08:43:03;;;;;;;0.88;0.45;;;;;;;-149.78;43.32;50080.31;4823841;29;20102;-74
2021/10/06 08:45:29;;;;;;;1.40;0.50;;;;;;;-149.78;41.97;50006.00;4838257;29;20440;-74
2021/10/06 08:47:56;;;;;;;0.57;0.50;;;;;;;-149.78;42.31;50092.03;4828503;29;20045;-74
2021/10/06 08:50:22;;;;;;;1.00;0.70;;;;;;;-149.78;41.92;49986.44;4840617;29;20395;-74
2021/10/06 08:52:50;;;;;;;0.60;0.60;;;;;;;-149.78;41.21;49998.19;4844836;29;20116;-74
2021/10/06 08:55:18;;;;;;;1.23;0.80;;;;;;;-149.78;40.35;50017.72;4843576;29;20390;-74
2021/10/06 08:57:44;;;;;;;0.47;0.40;;;;;;;-149.78;39.97;50002.09;4827965;29;20121;-74
2021/10/06 09:00:11;;;;;;;0.80;0.50;;;;;;;-149.78;39.69;50035.34;4827382;29;20037;-74
2021/10/06 09:02:41;;;;;;;1.38;0.50;;;;;;;-149.78;40.86;50039.25;4843114;29;20455;-74
2021/10/06 09:05:09;;;;;;;0.82;0.55;;;;;;;-149.78;40.33;50006.00;4837703;29;20037;-74
2021/10/06 09:08:03;;;;;;;0.52;0.50;;;;;;;-149.78;39.58;50052.94;4843477;29;20481;-74
2021/10/06 09:10:32;;;;;;;0.30;0.30;;;;;;;-149.78;39.73;50009.91;4839045;29;20038;-74
2021/10/06 09:13:05;;;;;;;0.65;0.50;;;;;;;-149.78;39.45;50031.41;4834335;29;20124;-74
2021/10/06 09:15:44;;;;;;;0.30;0.30;;;;;;;-149.78;39.21;49998.19;4843779;29;20034;-73
2021/10/06 09:18:18;;;;;;;3.10;0.60;;;;;;;-149.78;39.04;50009.91;4828340;29;20042;-73
2021/10/06 09:20:44;;;;;;;0.55;0.35;;;;;;;-149.78;39.13;50009.91;4831738;29;20038;-72
2021/10/06 09:23:15;;;;;;;2.15;0.40;;;;;;;-149.78;38.45;49974.72;4844328;29;20090;-73
2021/10/06 09:26:01;;;;;;;0.93;0.47;;;;;;;-149.78;38.18;49990.34;4843868;29;20041;-73
2021/10/06 09:28:33;;;;;;;1.30;0.68;;;;;;;-149.78;38.30;50015.78;4844913;29;20125;-73
2021/10/06 09:31:01;;;;;;;0.28;0.28;;;;;;;-149.78;38.43;49998.19;4838913;29;20026;-73
2021/10/06 09:33:55;;;;;;;0.55;0.50;;;;;;;-149.78;38.19;49988.41;4848900;29;20038;-73
2021/10/06 09:36:20;;;;;;;1.45;0.32;;;;;;;-149.78;38.58;49982.53;4840818;29;20046;-73
2021/10/06 09:38:53;;;;;;;0.43;0.43;;;;;;;-149.78;38.43;50017.72;4844050;29;20053;-73
2021/10/06 09:41:43;;;;;;;1.52;0.50;;;;;;;-149.78;37.00;49974.72;4842547;29;20061;-73
2021/10/06 09:44:17;;;;;;;0.40;0.40;;;;;;;-149.78;37.84;49998.19;4836381;29;20030;-73
2021/10/06 09:46:58;;;;;;;1.25;0.40;;;;;;;-149.78;37.36;49980.56;4825507;29;20026;-73
2021/10/06 09:49:34;;;;;;;0.57;0.40;;;;;;;-149.78;38.18;50002.09;4828520;29;20056;-73
2021/10/06 09:52:15;;;;;;;0.68;0.40;;;;;;;-149.78;37.53;49976.66;4839866;29;20036;-73
2021/10/06 09:54:52;;;;;;;1.15;0.40;;;;;;;-149.78;37.91;50000.13;4837406;29;20040;-73
2021/10/06 09:57:35;;;;;;;0.98;0.50;;;;;;;-149.78;37.82;49982.53;4840550;29;20026;-73
2021/10/06 10:00:20;;;;;;;1.70;0.55;;;;;;;-149.78;36.88;49978.63;4834173;29;20047;-73
2021/10/06 10:02:47;;;;;;;0.95;0.70;;;;;;;-149.78;37.75;49978.63;4833530;29;20034;-73
2021/10/06 10:05:15;;;;;;;1.63;0.40;;;;;;;-149.78;37.40;50002.09;4817549;29;20050;-73
2021/10/06 10:07:41;;;;;;;2.13;0.57;;;;;;;-149.78;36.90;49972.75;4832454;29;20081;-73
2021/10/06 10:10:10;;;;;;;0.88;0.43;;;;;;;-149.78;37.36;49962.97;4818092;29;20477;-73
2021/10/06 10:12:36;;;;;;;1.02;0.60;;;;;;;-149.78;37.24;49970.78;4816226;29;20132;-73
2021/10/06 10:15:06;;;;;;;0.40;0.40;;;;;;;-149.78;37.40;49962.97;4842937;29;20038;-73
2021/10/06 10:17:31;;;;;;;1.15;0.57;;;;;;;-149.78;37.75;49959.06;4833103;29;20183;-71
2021/10/06 10:20:00;;;;;;;1.08;0.60;;;;;;;-149.78;37.84;49982.53;4841802;29;20130;-71
2021/10/06 10:22:30;;;;;;;1.30;0.45;;;;;;;-149.78;36.94;49974.72;4837180;29;20041;-73
2021/10/06 10:24:56;;;;;;;3.58;0.70;;;;;;;-149.78;36.56;49974.72;4841357;29;20038;-73
2021/10/06 10:27:24;;;;;;;1.10;0.50;;;;;;;-149.78;36.13;49982.53;4841177;29;20041;-73
2021/10/06 10:30:03;;;;;;;0.40;0.40;;;;;;;-149.78;36.37;49947.34;4826487;29;20166;-72
2021/10/06 10:32:41;;;;;;;0.70;0.50;;;;;;;-149.78;36.79;49990.34;4841732;29;20042;-73
2021/10/06 10:35:07;;;;;;;0.88;0.65;;;;;;;-149.78;37.33;49990.34;4823808;29;20046;-72
2021/10/06 10:37:45;;;;;;;0.40;0.38;;;;;;;-149.78;36.67;49966.88;4842574;29;20030;-73
2021/10/06 10:40:29;;;;;;;0.77;0.55;;;;;;;-149.78;37.30;50000.13;4829411;29;20034;-73
2021/10/06 10:43:15;;;;;;;1.58;0.80;;;;;;;-149.78;37.04;49998.19;4838678;29;20034;-73
2021/10/06 10:45:59;;;;;;;0.40;0.40;;;;;;;-149.78;37.65;49982.53;4828296;29;20117;-73
2021/10/06 10:48:56;;;;;;;0.45;0.38;;;;;;;-149.78;38.58;50023.59;4838653;29;20404;-73
2021/10/06 10:51:58;;;;;;;0.90;0.47;;;;;;;-149.78;38.91;50058.78;4828574;29;20038;-73
2021/10/06 10:54:41;;;;;;;1.08;0.60;;;;;;;-149.78;37.93;50033.38;4799511;29;20503;-72
2021/10/06 10:57:27;;;;;;;3.10;0.75;;;;;;;-149.78;37.86;49986.44;4834633;29;20049;-73
2021/10/06 10:59:56;;;;;;;0.40;0.40;;;;;;;-149.78;38.30;50013.81;4835647;29;20038;-73
2021/10/06 11:02:31;;;;;;;0.50;0.40;;;;;;;-149.78;39.14;50025.56;4839771;29;20030;-73
2021/10/06 11:05:01;;;;;;;0.88;0.52;;;;;;;-149.78;39.69;50049.03;4836349;29;20030;-73
2021/10/06 11:07:28;;;;;;;0.93;0.60;;;;;;;-149.78;40.32;50056.84;4823240;29;20037;-73
2021/10/06 11:09:55;;;;;;;1.08;0.55;;;;;;;-149.78;40.41;50004.03;4840743;29;20048;-73
2021/10/06 11:12:20;;;;;;;0.65;0.50;;;;;;;-149.78;39.69;50015.78;4839933;29;20105;-73
2021/10/06 11:15:04;;;;;;;1.88;0.70;;;;;;;-149.78;40.00;50025.56;4827715;29;20034;-73